sensor_id;sensor_type;location;lat;lon;timestamp;temperature;humidity
20066;DHT22;10193;48.884;9.182;2023-03-13T00:02:19;10.40;59.90
20066;DHT22;10193;48.884;9.182;2023-03-13T00:04:45;10.30;59.90
20066;DHT22;10193;48.884;9.182;2023-03-13T00:07:13;10.30;59.90
20066;DHT22;10193;48.884;9.182;2023-03-13T00:09:40;10.30;60.00
20066;DHT22;10193;48.884;9.182;2023-03-13T00:12:07;10.30;60.10
20066;DHT22;10193;48.884;9.182;2023-03-13T00:14:34;10.30;60.20
20066;DHT22;10193;48.884;9.182;2023-03-13T00:17:00;10.30;60.20
20066;DHT22;10193;48.884;9.182;2023-03-13T00:19:27;10.30;60.30
20066;DHT22;10193;48.884;9.182;2023-03-13T00:21:54;10.40;60.40
20066;DHT22;10193;48.884;9.182;2023-03-13T00:24:22;10.40;60.50
20066;DHT22;10193;48.884;9.182;2023-03-13T00:26:48;10.40;60.60
20066;DHT22;10193;48.884;9.182;2023-03-13T00:29:15;10.40;60.60
20066;DHT22;10193;48.884;9.182;2023-03-13T00:31:42;10.40;60.60
20066;DHT22;10193;48.884;9.182;2023-03-13T00:34:08;10.40;60.60
20066;DHT22;10193;48.884;9.182;2023-03-13T00:36:35;10.40;60.60
20066;DHT22;10193;48.884;9.182;2023-03-13T00:39:03;10.40;60.60
20066;DHT22;10193;48.884;9.182;2023-03-13T00:41:32;10.50;60.80
20066;DHT22;10193;48.884;9.182;2023-03-13T00:43:59;10.50;60.70
20066;DHT22;10193;48.884;9.182;2023-03-13T00:46:27;10.50;60.70
20066;DHT22;10193;48.884;9.182;2023-03-13T00:48:55;10.50;60.80
20066;DHT22;10193;48.884;9.182;2023-03-13T00:51:23;10.50;60.80
20066;DHT22;10193;48.884;9.182;2023-03-13T00:53:51;10.50;60.90
20066;DHT22;10193;48.884;9.182;2023-03-13T00:56:18;10.50;60.80
20066;DHT22;10193;48.884;9.182;2023-03-13T00:58:48;10.50;60.90
20066;DHT22;10193;48.884;9.182;2023-03-13T01:01:17;10.50;60.90
20066;DHT22;10193;48.884;9.182;2023-03-13T01:03:46;10.50;60.90
20066;DHT22;10193;48.884;9.182;2023-03-13T01:06:14;10.50;60.90
20066;DHT22;10193;48.884;9.182;2023-03-13T01:08:41;10.50;60.90
20066;DHT22;10193;48.884;9.182;2023-03-13T01:11:09;10.60;61.00
20066;DHT22;10193;48.884;9.182;2023-03-13T01:13:37;10.60;61.00
20066;DHT22;10193;48.884;9.182;2023-03-13T01:16:07;10.60;61.10
20066;DHT22;10193;48.884;9.182;2023-03-13T01:18:35;10.60;61.10
20066;DHT22;10193;48.884;9.182;2023-03-13T01:21:02;10.60;61.00
20066;DHT22;10193;48.884;9.182;2023-03-13T01:23:29;10.60;61.00
20066;DHT22;10193;48.884;9.182;2023-03-13T01:25:56;10.60;61.00
20066;DHT22;10193;48.884;9.182;2023-03-13T01:28:24;10.60;61.00
20066;DHT22;10193;48.884;9.182;2023-03-13T01:30:51;10.60;61.00
20066;DHT22;10193;48.884;9.182;2023-03-13T01:33:20;10.60;61.10
20066;DHT22;10193;48.884;9.182;2023-03-13T01:35:46;10.70;61.10
20066;DHT22;10193;48.884;9.182;2023-03-13T01:38:13;10.70;61.20
20066;DHT22;10193;48.884;9.182;2023-03-13T01:40:41;10.70;61.10
20066;DHT22;10193;48.884;9.182;2023-03-13T01:43:19;10.70;61.10
20066;DHT22;10193;48.884;9.182;2023-03-13T01:46:02;10.70;61.20
20066;DHT22;10193;48.884;9.182;2023-03-13T01:48:36;10.70;62.00
20066;DHT22;10193;48.884;9.182;2023-03-13T01:51:06;10.70;61.20
20066;DHT22;10193;48.884;9.182;2023-03-13T01:53:36;10.70;61.20
20066;DHT22;10193;48.884;9.182;2023-03-13T01:56:06;10.70;61.20
20066;DHT22;10193;48.884;9.182;2023-03-13T01:58:35;10.70;61.20
20066;DHT22;10193;48.884;9.182;2023-03-13T02:01:02;10.70;61.20
20066;DHT22;10193;48.884;9.182;2023-03-13T02:03:29;10.70;61.20
20066;DHT22;10193;48.884;9.182;2023-03-13T02:05:59;10.70;61.20
20066;DHT22;10193;48.884;9.182;2023-03-13T02:08:31;10.70;61.20
20066;DHT22;10193;48.884;9.182;2023-03-13T02:11:06;10.70;61.30
20066;DHT22;10193;48.884;9.182;2023-03-13T02:13:34;10.80;61.40
20066;DHT22;10193;48.884;9.182;2023-03-13T02:16:01;10.80;61.30
20066;DHT22;10193;48.884;9.182;2023-03-13T02:18:28;10.80;61.30
20066;DHT22;10193;48.884;9.182;2023-03-13T02:21:00;10.80;62.20
20066;DHT22;10193;48.884;9.182;2023-03-13T02:23:34;10.80;61.40
20066;DHT22;10193;48.884;9.182;2023-03-13T02:26:04;10.80;61.40
20066;DHT22;10193;48.884;9.182;2023-03-13T02:28:33;10.80;61.40
20066;DHT22;10193;48.884;9.182;2023-03-13T02:31:00;10.80;61.40
20066;DHT22;10193;48.884;9.182;2023-03-13T02:33:29;10.90;61.50
20066;DHT22;10193;48.884;9.182;2023-03-13T02:35:58;10.90;61.50
20066;DHT22;10193;48.884;9.182;2023-03-13T02:38:28;10.90;61.50
20066;DHT22;10193;48.884;9.182;2023-03-13T02:40:57;10.90;61.40
20066;DHT22;10193;48.884;9.182;2023-03-13T02:43:30;10.90;61.40
20066;DHT22;10193;48.884;9.182;2023-03-13T02:46:01;10.90;61.30
20066;DHT22;10193;48.884;9.182;2023-03-13T02:48:31;10.90;61.40
20066;DHT22;10193;48.884;9.182;2023-03-13T02:50:59;10.90;61.30
20066;DHT22;10193;48.884;9.182;2023-03-13T02:53:26;10.90;61.30
20066;DHT22;10193;48.884;9.182;2023-03-13T02:55:53;10.90;61.30
20066;DHT22;10193;48.884;9.182;2023-03-13T02:58:22;10.90;61.30
20066;DHT22;10193;48.884;9.182;2023-03-13T03:00:51;10.90;61.30
20066;DHT22;10193;48.884;9.182;2023-03-13T03:03:17;10.90;61.40
20066;DHT22;10193;48.884;9.182;2023-03-13T03:05:44;11.00;61.50
20066;DHT22;10193;48.884;9.182;2023-03-13T03:08:11;11.00;61.60
20066;DHT22;10193;48.884;9.182;2023-03-13T03:10:37;11.00;61.70
20066;DHT22;10193;48.884;9.182;2023-03-13T03:13:04;11.00;61.70
20066;DHT22;10193;48.884;9.182;2023-03-13T03:15:31;11.00;61.70
20066;DHT22;10193;48.884;9.182;2023-03-13T03:17:59;11.00;61.80
20066;DHT22;10193;48.884;9.182;2023-03-13T03:20:25;11.00;61.90
20066;DHT22;10193;48.884;9.182;2023-03-13T03:22:52;11.10;62.00
20066;DHT22;10193;48.884;9.182;2023-03-13T03:25:19;11.10;62.10
20066;DHT22;10193;48.884;9.182;2023-03-13T03:27:45;11.10;62.10
20066;DHT22;10193;48.884;9.182;2023-03-13T03:30:12;11.10;62.20
20066;DHT22;10193;48.884;9.182;2023-03-13T03:32:39;11.10;63.10
20066;DHT22;10193;48.884;9.182;2023-03-13T03:35:08;11.20;62.50
20066;DHT22;10193;48.884;9.182;2023-03-13T03:37:34;11.20;62.60
20066;DHT22;10193;48.884;9.182;2023-03-13T03:40:01;11.20;62.60
20066;DHT22;10193;48.884;9.182;2023-03-13T03:42:30;11.30;62.70
20066;DHT22;10193;48.884;9.182;2023-03-13T03:44:56;11.30;62.80
20066;DHT22;10193;48.884;9.182;2023-03-13T03:47:23;11.30;62.80
20066;DHT22;10193;48.884;9.182;2023-03-13T03:49:50;11.30;62.80
20066;DHT22;10193;48.884;9.182;2023-03-13T03:52:18;11.40;62.80
20066;DHT22;10193;48.884;9.182;2023-03-13T03:54:44;11.40;62.80
20066;DHT22;10193;48.884;9.182;2023-03-13T03:57:11;11.40;62.90
20066;DHT22;10193;48.884;9.182;2023-03-13T03:59:38;11.40;62.90
20066;DHT22;10193;48.884;9.182;2023-03-13T04:02:04;11.50;63.00
20066;DHT22;10193;48.884;9.182;2023-03-13T04:04:31;11.50;63.00
20066;DHT22;10193;48.884;9.182;2023-03-13T04:06:58;11.50;63.10
20066;DHT22;10193;48.884;9.182;2023-03-13T04:09:26;11.50;63.10
20066;DHT22;10193;48.884;9.182;2023-03-13T04:11:53;11.60;63.20
20066;DHT22;10193;48.884;9.182;2023-03-13T04:14:19;11.60;63.30
20066;DHT22;10193;48.884;9.182;2023-03-13T04:16:46;11.60;63.30
20066;DHT22;10193;48.884;9.182;2023-03-13T04:19:12;11.60;63.30
20066;DHT22;10193;48.884;9.182;2023-03-13T04:21:39;11.70;63.50
20066;DHT22;10193;48.884;9.182;2023-03-13T04:24:06;11.70;63.40
20066;DHT22;10193;48.884;9.182;2023-03-13T04:26:34;11.70;63.50
20066;DHT22;10193;48.884;9.182;2023-03-13T04:29:01;11.80;63.70
20066;DHT22;10193;48.884;9.182;2023-03-13T04:31:27;11.80;63.70
20066;DHT22;10193;48.884;9.182;2023-03-13T04:33:54;11.90;64.10
20066;DHT22;10193;48.884;9.182;2023-03-13T04:36:21;11.90;64.50
20066;DHT22;10193;48.884;9.182;2023-03-13T04:38:47;12.00;64.80
20066;DHT22;10193;48.884;9.182;2023-03-13T04:41:14;12.10;65.10
20066;DHT22;10193;48.884;9.182;2023-03-13T04:43:42;12.20;65.40
20066;DHT22;10193;48.884;9.182;2023-03-13T04:46:08;12.30;65.60
20066;DHT22;10193;48.884;9.182;2023-03-13T04:48:35;12.40;65.80
20066;DHT22;10193;48.884;9.182;2023-03-13T04:51:02;12.50;65.90
20066;DHT22;10193;48.884;9.182;2023-03-13T04:53:28;12.60;65.90
20066;DHT22;10193;48.884;9.182;2023-03-13T04:55:55;12.70;66.70
20066;DHT22;10193;48.884;9.182;2023-03-13T04:58:22;12.80;66.00
20066;DHT22;10193;48.884;9.182;2023-03-13T05:00:50;12.90;65.80
20066;DHT22;10193;48.884;9.182;2023-03-13T05:03:18;13.00;65.80
20066;DHT22;10193;48.884;9.182;2023-03-13T05:05:44;13.10;66.20
20066;DHT22;10193;48.884;9.182;2023-03-13T05:08:11;13.10;66.00
20066;DHT22;10193;48.884;9.182;2023-03-13T05:10:38;13.20;66.00
20066;DHT22;10193;48.884;9.182;2023-03-13T05:13:04;13.30;65.90
20066;DHT22;10193;48.884;9.182;2023-03-13T05:15:31;13.30;65.80
20066;DHT22;10193;48.884;9.182;2023-03-13T05:17:59;13.40;65.80
20066;DHT22;10193;48.884;9.182;2023-03-13T05:20:26;13.40;65.60
20066;DHT22;10193;48.884;9.182;2023-03-13T05:22:53;13.50;65.70
20066;DHT22;10193;48.884;9.182;2023-03-13T05:25:19;13.50;65.60
20066;DHT22;10193;48.884;9.182;2023-03-13T05:27:46;13.60;65.70
20066;DHT22;10193;48.884;9.182;2023-03-13T05:30:13;13.60;65.70
20066;DHT22;10193;48.884;9.182;2023-03-13T05:32:39;13.60;65.60
20066;DHT22;10193;48.884;9.182;2023-03-13T05:35:08;13.70;65.70
20066;DHT22;10193;48.884;9.182;2023-03-13T05:37:34;13.70;66.40
20066;DHT22;10193;48.884;9.182;2023-03-13T05:40:01;13.80;65.60
20066;DHT22;10193;48.884;9.182;2023-03-13T05:42:29;13.80;65.60
20066;DHT22;10193;48.884;9.182;2023-03-13T05:44:55;13.80;65.40
20066;DHT22;10193;48.884;9.182;2023-03-13T05:47:22;13.80;65.40
20066;DHT22;10193;48.884;9.182;2023-03-13T05:49:49;13.80;65.40
20066;DHT22;10193;48.884;9.182;2023-03-13T05:52:16;13.80;65.40
20066;DHT22;10193;48.884;9.182;2023-03-13T05:54:43;13.90;65.60
20066;DHT22;10193;48.884;9.182;2023-03-13T05:57:10;13.90;65.40
20066;DHT22;10193;48.884;9.182;2023-03-13T05:59:36;13.90;65.40
20066;DHT22;10193;48.884;9.182;2023-03-13T06:02:03;13.90;65.40
20066;DHT22;10193;48.884;9.182;2023-03-13T06:04:30;14.00;65.40
20066;DHT22;10193;48.884;9.182;2023-03-13T06:06:57;14.00;65.50
20066;DHT22;10193;48.884;9.182;2023-03-13T06:09:25;14.00;65.40
20066;DHT22;10193;48.884;9.182;2023-03-13T06:11:51;14.10;65.60
20066;DHT22;10193;48.884;9.182;2023-03-13T06:14:18;14.10;65.60
20066;DHT22;10193;48.884;9.182;2023-03-13T06:16:44;14.10;65.60
20066;DHT22;10193;48.884;9.182;2023-03-13T06:19:11;14.10;65.50
20066;DHT22;10193;48.884;9.182;2023-03-13T06:21:38;14.10;65.40
20066;DHT22;10193;48.884;9.182;2023-03-13T06:24:05;14.20;65.70
20066;DHT22;10193;48.884;9.182;2023-03-13T06:26:36;14.20;65.70
20066;DHT22;10193;48.884;9.182;2023-03-13T06:29:02;14.20;65.70
20066;DHT22;10193;48.884;9.182;2023-03-13T06:31:29;14.30;65.70
20066;DHT22;10193;48.884;9.182;2023-03-13T06:33:56;14.30;65.80
20066;DHT22;10193;48.884;9.182;2023-03-13T06:36:24;14.30;65.80
20066;DHT22;10193;48.884;9.182;2023-03-13T06:38:51;14.40;65.90
20066;DHT22;10193;48.884;9.182;2023-03-13T06:41:18;14.40;65.90
20066;DHT22;10193;48.884;9.182;2023-03-13T06:43:45;14.50;66.00
20066;DHT22;10193;48.884;9.182;2023-03-13T06:46:16;14.50;65.90
20066;DHT22;10193;48.884;9.182;2023-03-13T06:48:44;14.50;65.90
20066;DHT22;10193;48.884;9.182;2023-03-13T06:51:11;14.60;65.80
20066;DHT22;10193;48.884;9.182;2023-03-13T06:53:37;14.60;65.70
20066;DHT22;10193;48.884;9.182;2023-03-13T06:56:05;14.70;65.70
20066;DHT22;10193;48.884;9.182;2023-03-13T06:58:32;14.70;65.60
20066;DHT22;10193;48.884;9.182;2023-03-13T07:01:05;14.70;65.50
20066;DHT22;10193;48.884;9.182;2023-03-13T07:03:32;14.70;65.40
20066;DHT22;10193;48.884;9.182;2023-03-13T07:05:59;14.70;65.40
20066;DHT22;10193;48.884;9.182;2023-03-13T07:08:26;14.80;65.50
20066;DHT22;10193;48.884;9.182;2023-03-13T07:10:58;14.70;65.50
20066;DHT22;10193;48.884;9.182;2023-03-13T07:13:24;14.80;65.60
20066;DHT22;10193;48.884;9.182;2023-03-13T07:15:51;14.80;65.60
20066;DHT22;10193;48.884;9.182;2023-03-13T07:18:20;14.80;65.60
20066;DHT22;10193;48.884;9.182;2023-03-13T07:20:51;14.80;65.60
20066;DHT22;10193;48.884;9.182;2023-03-13T07:23:18;14.80;65.70
20066;DHT22;10193;48.884;9.182;2023-03-13T07:25:52;14.80;65.60
20066;DHT22;10193;48.884;9.182;2023-03-13T07:28:18;14.80;65.80
20066;DHT22;10193;48.884;9.182;2023-03-13T07:30:45;14.90;65.70
20066;DHT22;10193;48.884;9.182;2023-03-13T07:33:12;14.90;65.80
20066;DHT22;10193;48.884;9.182;2023-03-13T07:35:40;14.90;65.80
20066;DHT22;10193;48.884;9.182;2023-03-13T07:38:12;14.90;65.90
20066;DHT22;10193;48.884;9.182;2023-03-13T07:40:39;14.90;65.90
20066;DHT22;10193;48.884;9.182;2023-03-13T07:43:05;14.90;66.80
20066;DHT22;10193;48.884;9.182;2023-03-13T07:45:32;15.00;66.10
20066;DHT22;10193;48.884;9.182;2023-03-13T07:47:58;14.90;66.00
20066;DHT22;10193;48.884;9.182;2023-03-13T07:50:25;15.00;66.10
20066;DHT22;10193;48.884;9.182;2023-03-13T07:52:53;15.00;66.10
20066;DHT22;10193;48.884;9.182;2023-03-13T07:55:20;15.00;66.10
20066;DHT22;10193;48.884;9.182;2023-03-13T07:57:46;15.00;66.20
20066;DHT22;10193;48.884;9.182;2023-03-13T08:00:13;15.10;66.20
20066;DHT22;10193;48.884;9.182;2023-03-13T08:02:41;15.10;66.30
20066;DHT22;10193;48.884;9.182;2023-03-13T08:05:08;15.10;66.40
20066;DHT22;10193;48.884;9.182;2023-03-13T08:07:35;15.10;66.50
20066;DHT22;10193;48.884;9.182;2023-03-13T08:10:03;15.20;66.60
20066;DHT22;10193;48.884;9.182;2023-03-13T08:12:30;15.30;66.70
20066;DHT22;10193;48.884;9.182;2023-03-13T08:14:57;15.30;66.70
20066;DHT22;10193;48.884;9.182;2023-03-13T08:17:24;15.40;66.90
20066;DHT22;10193;48.884;9.182;2023-03-13T08:19:50;15.50;67.00
20066;DHT22;10193;48.884;9.182;2023-03-13T08:22:17;15.50;66.90
20066;DHT22;10193;48.884;9.182;2023-03-13T08:24:43;15.60;67.10
20066;DHT22;10193;48.884;9.182;2023-03-13T08:27:12;15.70;67.20
20066;DHT22;10193;48.884;9.182;2023-03-13T08:29:38;15.70;67.10
20066;DHT22;10193;48.884;9.182;2023-03-13T08:32:05;15.80;67.10
20066;DHT22;10193;48.884;9.182;2023-03-13T08:34:32;15.90;67.10
20066;DHT22;10193;48.884;9.182;2023-03-13T08:36:59;15.90;66.90
20066;DHT22;10193;48.884;9.182;2023-03-13T08:39:26;16.00;67.80
20066;DHT22;10193;48.884;9.182;2023-03-13T08:41:53;16.10;67.10
20066;DHT22;10193;48.884;9.182;2023-03-13T08:44:21;16.20;66.90
20066;DHT22;10193;48.884;9.182;2023-03-13T08:46:48;16.30;67.70
20066;DHT22;10193;48.884;9.182;2023-03-13T08:49:15;16.30;66.70
20066;DHT22;10193;48.884;9.182;2023-03-13T08:51:42;16.40;66.70
20066;DHT22;10193;48.884;9.182;2023-03-13T08:54:09;16.50;66.60
20066;DHT22;10193;48.884;9.182;2023-03-13T08:56:36;16.60;66.60
20066;DHT22;10193;48.884;9.182;2023-03-13T08:59:05;16.60;66.50
20066;DHT22;10193;48.884;9.182;2023-03-13T09:01:34;16.70;66.40
20066;DHT22;10193;48.884;9.182;2023-03-13T09:04:02;16.70;66.20
20066;DHT22;10193;48.884;9.182;2023-03-13T09:06:29;16.80;66.20
20066;DHT22;10193;48.884;9.182;2023-03-13T09:08:56;16.90;66.20
20066;DHT22;10193;48.884;9.182;2023-03-13T09:11:23;16.90;66.00
20066;DHT22;10193;48.884;9.182;2023-03-13T09:13:50;17.00;65.90
20066;DHT22;10193;48.884;9.182;2023-03-13T09:16:19;17.00;65.70
20066;DHT22;10193;48.884;9.182;2023-03-13T09:18:47;17.10;65.60
20066;DHT22;10193;48.884;9.182;2023-03-13T09:21:16;17.10;65.60
20066;DHT22;10193;48.884;9.182;2023-03-13T09:23:43;17.10;65.50
20066;DHT22;10193;48.884;9.182;2023-03-13T09:26:11;17.10;65.40
20066;DHT22;10193;48.884;9.182;2023-03-13T09:28:38;17.20;65.40
20066;DHT22;10193;48.884;9.182;2023-03-13T09:31:07;17.20;65.60
20066;DHT22;10193;48.884;9.182;2023-03-13T09:33:34;17.30;65.70
20066;DHT22;10193;48.884;9.182;2023-03-13T09:36:02;17.40;65.90
20066;DHT22;10193;48.884;9.182;2023-03-13T09:38:29;17.40;65.40
20066;DHT22;10193;48.884;9.182;2023-03-13T09:41:01;17.50;65.30
20066;DHT22;10193;48.884;9.182;2023-03-13T09:43:39;17.60;65.20
20066;DHT22;10193;48.884;9.182;2023-03-13T09:46:12;17.60;65.00
20066;DHT22;10193;48.884;9.182;2023-03-13T09:48:43;17.60;65.10
20066;DHT22;10193;48.884;9.182;2023-03-13T09:51:15;17.70;65.10
20066;DHT22;10193;48.884;9.182;2023-03-13T09:53:47;17.70;65.00
20066;DHT22;10193;48.884;9.182;2023-03-13T09:56:19;17.80;65.40
20066;DHT22;10193;48.884;9.182;2023-03-13T09:58:53;17.90;65.70
20066;DHT22;10193;48.884;9.182;2023-03-13T10:01:23;17.90;65.40
20066;DHT22;10193;48.884;9.182;2023-03-13T10:04:00;18.10;65.60
20066;DHT22;10193;48.884;9.182;2023-03-13T10:06:34;18.20;65.00
20066;DHT22;10193;48.884;9.182;2023-03-13T10:09:00;18.30;64.80
20066;DHT22;10193;48.884;9.182;2023-03-13T10:11:31;18.40;64.80
20066;DHT22;10193;48.884;9.182;2023-03-13T10:14:05;18.40;64.30
20066;DHT22;10193;48.884;9.182;2023-03-13T10:16:39;18.50;64.10
20066;DHT22;10193;48.884;9.182;2023-03-13T10:19:11;18.50;63.60
20066;DHT22;10193;48.884;9.182;2023-03-13T10:21:41;18.60;63.30
20066;DHT22;10193;48.884;9.182;2023-03-13T10:24:15;18.60;63.10
20066;DHT22;10193;48.884;9.182;2023-03-13T10:26:43;18.60;63.00
20066;DHT22;10193;48.884;9.182;2023-03-13T10:29:21;18.60;63.10
20066;DHT22;10193;48.884;9.182;2023-03-13T10:31:54;18.60;62.60
20066;DHT22;10193;48.884;9.182;2023-03-13T10:34:22;18.70;63.10
20066;DHT22;10193;48.884;9.182;2023-03-13T10:36:54;18.70;63.40
20066;DHT22;10193;48.884;9.182;2023-03-13T10:39:23;18.70;63.30
20066;DHT22;10193;48.884;9.182;2023-03-13T10:41:56;18.80;63.50
20066;DHT22;10193;48.884;9.182;2023-03-13T10:44:29;18.90;63.40
20066;DHT22;10193;48.884;9.182;2023-03-13T10:46:59;19.00;63.30
20066;DHT22;10193;48.884;9.182;2023-03-13T10:49:27;19.00;63.10
20066;DHT22;10193;48.884;9.182;2023-03-13T10:51:58;19.10;62.90
20066;DHT22;10193;48.884;9.182;2023-03-13T10:54:27;19.20;62.50
20066;DHT22;10193;48.884;9.182;2023-03-13T10:57:09;19.10;62.20
20066;DHT22;10193;48.884;9.182;2023-03-13T10:59:41;19.10;61.60
20066;DHT22;10193;48.884;9.182;2023-03-13T11:02:20;19.10;62.10
20066;DHT22;10193;48.884;9.182;2023-03-13T11:04:48;19.10;61.90
20066;DHT22;10193;48.884;9.182;2023-03-13T11:07:24;19.20;62.30
20066;DHT22;10193;48.884;9.182;2023-03-13T11:09:57;19.20;62.40
20066;DHT22;10193;48.884;9.182;2023-03-13T11:12:24;19.30;62.40
20066;DHT22;10193;48.884;9.182;2023-03-13T11:14:56;19.30;62.30
20066;DHT22;10193;48.884;9.182;2023-03-13T11:17:34;19.40;62.00
20066;DHT22;10193;48.884;9.182;2023-03-13T11:20:11;19.40;61.80
20066;DHT22;10193;48.884;9.182;2023-03-13T11:22:55;19.50;61.90
20066;DHT22;10193;48.884;9.182;2023-03-13T11:25:30;19.60;61.50
20066;DHT22;10193;48.884;9.182;2023-03-13T11:28:12;19.70;61.50
20066;DHT22;10193;48.884;9.182;2023-03-13T11:31:06;19.70;61.00
20066;DHT22;10193;48.884;9.182;2023-03-13T11:33:38;19.70;60.70
20066;DHT22;10193;48.884;9.182;2023-03-13T11:36:14;19.80;61.30
20066;DHT22;10193;48.884;9.182;2023-03-13T11:38:47;19.90;61.40
20066;DHT22;10193;48.884;9.182;2023-03-13T11:41:29;19.90;61.40
20066;DHT22;10193;48.884;9.182;2023-03-13T11:44:08;20.00;60.90
20066;DHT22;10193;48.884;9.182;2023-03-13T11:46:50;20.00;60.00
20066;DHT22;10193;48.884;9.182;2023-03-13T11:49:35;20.00;59.30
20066;DHT22;10193;48.884;9.182;2023-03-13T11:52:15;20.00;59.70
20066;DHT22;10193;48.884;9.182;2023-03-13T11:57:43;20.00;60.00
20066;DHT22;10193;48.884;9.182;2023-03-13T12:00:21;20.00;60.10
20066;DHT22;10193;48.884;9.182;2023-03-13T12:02:54;20.10;60.00
20066;DHT22;10193;48.884;9.182;2023-03-13T12:05:24;20.10;60.10
20066;DHT22;10193;48.884;9.182;2023-03-13T12:07:58;20.20;60.40
20066;DHT22;10193;48.884;9.182;2023-03-13T12:10:31;20.20;60.30
20066;DHT22;10193;48.884;9.182;2023-03-13T12:13:04;20.30;60.10
20066;DHT22;10193;48.884;9.182;2023-03-13T12:15:34;20.30;60.00
20066;DHT22;10193;48.884;9.182;2023-03-13T12:18:05;20.40;60.20
20066;DHT22;10193;48.884;9.182;2023-03-13T12:20:40;20.50;60.10
20066;DHT22;10193;48.884;9.182;2023-03-13T12:23:16;20.50;59.50
20066;DHT22;10193;48.884;9.182;2023-03-13T12:25:48;20.60;59.60
20066;DHT22;10193;48.884;9.182;2023-03-13T12:28:28;20.60;59.70
20066;DHT22;10193;48.884;9.182;2023-03-13T12:31:01;20.70;59.30
20066;DHT22;10193;48.884;9.182;2023-03-13T12:33:33;20.80;59.70
20066;DHT22;10193;48.884;9.182;2023-03-13T12:36:05;20.90;59.60
20066;DHT22;10193;48.884;9.182;2023-03-13T12:38:37;20.90;59.50
20066;DHT22;10193;48.884;9.182;2023-03-13T12:41:21;21.00;59.40
20066;DHT22;10193;48.884;9.182;2023-03-13T12:43:51;21.00;59.00
20066;DHT22;10193;48.884;9.182;2023-03-13T12:46:35;21.10;59.30
20066;DHT22;10193;48.884;9.182;2023-03-13T12:49:14;21.20;58.60
20066;DHT22;10193;48.884;9.182;2023-03-13T12:51:59;21.30;58.60
20066;DHT22;10193;48.884;9.182;2023-03-13T12:54:46;21.40;58.40
20066;DHT22;10193;48.884;9.182;2023-03-13T12:57:31;21.40;58.20
20066;DHT22;10193;48.884;9.182;2023-03-13T13:00:13;21.50;58.30
20066;DHT22;10193;48.884;9.182;2023-03-13T13:02:42;21.50;58.20
20066;DHT22;10193;48.884;9.182;2023-03-13T13:05:17;21.60;58.40
20066;DHT22;10193;48.884;9.182;2023-03-13T13:07:51;21.70;57.90
20066;DHT22;10193;48.884;9.182;2023-03-13T13:10:21;21.70;57.90
20066;DHT22;10193;48.884;9.182;2023-03-13T13:13:18;21.80;58.10
20066;DHT22;10193;48.884;9.182;2023-03-13T13:15:59;21.80;58.10
20066;DHT22;10193;48.884;9.182;2023-03-13T13:18:27;21.90;58.00
20066;DHT22;10193;48.884;9.182;2023-03-13T13:21:25;21.90;58.20
20066;DHT22;10193;48.884;9.182;2023-03-13T13:23:52;22.00;57.60
20066;DHT22;10193;48.884;9.182;2023-03-13T13:26:38;22.10;58.20
20066;DHT22;10193;48.884;9.182;2023-03-13T13:32:34;22.20;57.30
20066;DHT22;10193;48.884;9.182;2023-03-13T13:35:03;22.30;57.20
20066;DHT22;10193;48.884;9.182;2023-03-13T13:37:32;22.40;57.70
20066;DHT22;10193;48.884;9.182;2023-03-13T13:40:17;22.50;57.70
20066;DHT22;10193;48.884;9.182;2023-03-13T13:42:49;22.50;56.50
20066;DHT22;10193;48.884;9.182;2023-03-13T13:45:25;22.60;57.00
20066;DHT22;10193;48.884;9.182;2023-03-13T13:51:21;22.70;56.30
20066;DHT22;10193;48.884;9.182;2023-03-13T13:53:59;22.70;55.80
20066;DHT22;10193;48.884;9.182;2023-03-13T13:56:29;22.70;56.00
20066;DHT22;10193;48.884;9.182;2023-03-13T13:59:01;22.70;55.60
20066;DHT22;10193;48.884;9.182;2023-03-13T14:01:29;22.70;55.50
20066;DHT22;10193;48.884;9.182;2023-03-13T14:04:06;22.70;55.40
20066;DHT22;10193;48.884;9.182;2023-03-13T14:06:38;22.60;55.10
20066;DHT22;10193;48.884;9.182;2023-03-13T14:09:18;22.60;55.10
20066;DHT22;10193;48.884;9.182;2023-03-13T14:11:46;22.60;54.80
20066;DHT22;10193;48.884;9.182;2023-03-13T14:14:15;22.60;55.10
20066;DHT22;10193;48.884;9.182;2023-03-13T14:16:45;22.50;55.00
20066;DHT22;10193;48.884;9.182;2023-03-13T14:19:24;22.50;55.00
20066;DHT22;10193;48.884;9.182;2023-03-13T14:21:58;22.50;54.70
20066;DHT22;10193;48.884;9.182;2023-03-13T14:24:25;22.50;54.50
20066;DHT22;10193;48.884;9.182;2023-03-13T14:26:52;22.40;54.70
20066;DHT22;10193;48.884;9.182;2023-03-13T14:29:19;22.40;54.60
20066;DHT22;10193;48.884;9.182;2023-03-13T14:31:51;22.40;54.60
20066;DHT22;10193;48.884;9.182;2023-03-13T14:34:18;22.40;54.90
20066;DHT22;10193;48.884;9.182;2023-03-13T14:36:46;22.40;55.10
20066;DHT22;10193;48.884;9.182;2023-03-13T14:39:18;22.40;54.90
20066;DHT22;10193;48.884;9.182;2023-03-13T14:41:47;22.40;54.70
20066;DHT22;10193;48.884;9.182;2023-03-13T14:44:21;22.40;54.90
20066;DHT22;10193;48.884;9.182;2023-03-13T14:46:52;22.40;54.70
20066;DHT22;10193;48.884;9.182;2023-03-13T14:49:21;22.40;54.80
20066;DHT22;10193;48.884;9.182;2023-03-13T14:51:58;22.40;54.70
20066;DHT22;10193;48.884;9.182;2023-03-13T14:54:29;22.40;54.30
20066;DHT22;10193;48.884;9.182;2023-03-13T14:57:13;22.40;54.50
20066;DHT22;10193;48.884;9.182;2023-03-13T14:59:40;22.40;54.40
20066;DHT22;10193;48.884;9.182;2023-03-13T15:02:18;22.40;54.60
20066;DHT22;10193;48.884;9.182;2023-03-13T15:04:53;22.40;54.20
20066;DHT22;10193;48.884;9.182;2023-03-13T15:07:21;22.40;54.30
20066;DHT22;10193;48.884;9.182;2023-03-13T15:09:50;22.40;54.50
20066;DHT22;10193;48.884;9.182;2023-03-13T15:12:20;22.40;54.40
20066;DHT22;10193;48.884;9.182;2023-03-13T15:14:48;22.40;54.20
20066;DHT22;10193;48.884;9.182;2023-03-13T15:17:17;22.40;54.10
20066;DHT22;10193;48.884;9.182;2023-03-13T15:19:49;22.40;54.10
20066;DHT22;10193;48.884;9.182;2023-03-13T15:22:17;22.40;53.90
20066;DHT22;10193;48.884;9.182;2023-03-13T15:24:45;22.40;54.00
20066;DHT22;10193;48.884;9.182;2023-03-13T15:27:16;22.40;53.80
20066;DHT22;10193;48.884;9.182;2023-03-13T15:29:44;22.40;53.50
20066;DHT22;10193;48.884;9.182;2023-03-13T15:32:24;22.40;53.60
20066;DHT22;10193;48.884;9.182;2023-03-13T15:34:51;22.40;53.10
20066;DHT22;10193;48.884;9.182;2023-03-13T15:37:18;22.40;53.40
20066;DHT22;10193;48.884;9.182;2023-03-13T15:39:45;22.40;53.30
20066;DHT22;10193;48.884;9.182;2023-03-13T15:42:11;22.40;53.10
20066;DHT22;10193;48.884;9.182;2023-03-13T15:44:39;22.40;53.00
20066;DHT22;10193;48.884;9.182;2023-03-13T15:47:09;22.40;53.00
20066;DHT22;10193;48.884;9.182;2023-03-13T15:49:35;22.40;53.00
20066;DHT22;10193;48.884;9.182;2023-03-13T15:52:02;22.40;53.00
20066;DHT22;10193;48.884;9.182;2023-03-13T15:54:29;22.40;53.10
20066;DHT22;10193;48.884;9.182;2023-03-13T15:56:56;22.40;52.90